Weather observations for the past three days for
Elbert Mountain - Monument Pass
Metric (Imperial)
Date Time (mdt) Wind (kph) Vis. (km) Weather Sky Cond. Temperature (ºC) Relative Humidity Wind Chill (°C) Heat Index (°C) Pressure Precipitation (cm)
Air Dwpt 6 hour altimeter (cm) sea level (mb) 1 hr 3 hr 6 hr
Max. Min.
07 12:55 W 15 16.09 Partly Cloudy SCT085 15 -2 31% 76.43 0.0
07 12:35 W 11 16.09 Fair CLR 14 -2 33% 76.43 0.0
07 12:15 W 15 16.09 Fair CLR 13 -3 33% 76.43 0.0
07 11:55 W 13 16.09 Fair CLR 13 -3 33% 76.45 0.0
07 11:15 SW 9 16.09 Fair CLR 13 -2 36% 76.48 0.0
07 10:55 W 15 16.09 Fair CLR 13 -3 33% 76.5 0.0
07 10:35 W 13 16.09 Fair CLR 13 -1 38% 76.5 0.0
07 09:55 W 19 16.09 Fair CLR 10 -1 47% 8 76.53 0.0
07 09:35 SW 19 16.09 Fair CLR 10 -1 47% 8 76.53 0.0
07 09:15 SW 19 16.09 Fair CLR 9 -1 50% 7 76.5 0.0
07 08:55 SW 19 16.09 Fair CLR 8 -1 53% 5 76.5 0.0
07 08:35 SW 17 16.09 Fair CLR 7 -3 49% 4 76.5 0.0
07 08:15 SW 20 16.09 Fair CLR 7 -4 46% 4 76.5 0.0
07 07:55 SW 13 16.09 Fair CLR 6 -3 53% 4 76.5 0.0
07 07:35 SW 13 16.09 Fair CLR 5 -4 53% 2 76.5 0.0
07 07:15 SW 19 16.09 Fair CLR 3 -5 56% -1 76.48 0.0
07 06:55 SW 19 16.09 Fair CLR 2 -6 56% -2 76.45 0.0
07 06:35 SW 20 16.09 Fair CLR 1 -6 60% -4 76.43 0.0
07 06:15 SW 19 16.09 Fair CLR 1 -7 56% -3 76.43 0.0
07 05:55 SW 22 16.09 Fair CLR 1 -7 56% -4 76.43 0.0
07 05:35 SW 20 16.09 Fair CLR 0 -7 60% -5 76.43 0.0
07 05:15 SW 19 16.09 Fair CLR 0 -7 60% -5 76.43 0.0
07 04:55 SW 19 16.09 Fair CLR 0 -7 60% -5 76.43 0.0
07 04:35 SW 19 16.09 Fair CLR 0 -7 60% -5 76.43 0.0
07 04:15 SW 19 16.09 Fair CLR 0 -6 64% -5 76.43 0.0
07 03:55 SW 17 16.09 Fair CLR 0 -6 64% -4 76.45 0.0
07 03:35 SW 19 16.09 Fair CLR 0 -6 64% -5 76.45 0.0
07 03:15 SW 19 16.09 Fair CLR 0 -6 64% -5 76.45 0.0
07 02:55 SW 19 16.09 Fair CLR 0 -6 64% -5 76.48 0.0
07 02:35 SW 22 16.09 Fair CLR 0 -5 69% -5 76.45 0.0
07 02:15 SW 20 16.09 Fair CLR -1 -5 75% -6 76.48 0.0
07 01:55 SW 15 16.09 Fair CLR -1 -5 75% -5 76.48 0.0
07 01:15 SW 15 16.09 Fair CLR -1 -4 80% -5 76.5 0.0
07 00:55 SW 19 16.09 Fair CLR -1 -3 86% -6 76.5 0.0
07 00:35 SW 19 16.09 Fair CLR -1 -3 86% -6 76.5 0.0
07 00:15 SW 15 16.09 Fair CLR -2 -3 93% -6 76.5 0.0
06 23:55 SW 15 16.09 Fair CLR -2 -3 93% -6 76.5 0.0
06 23:35 SW 19 16.09 Fair CLR -1 -2 93% -6 76.5 0.0
06 23:15 S 13 16.09 Fair CLR -1 -2 93% -5 76.5 0.0
06 22:55 S 9 16.09 Fair CLR -1 -2 93% -4 76.5 0.0
06 22:35 S 9 16.09 Fair CLR -1 -2 93% -4 76.5 0.0
06 22:15 S 17 16.09 Fair CLR -1 -2 93% -6 76.48 0.0
06 21:55 S 17 16.09 Fair CLR -1 -2 93% -6 76.5 0.0
06 21:35 S 15 16.09 Fair CLR -1 -2 93% -5 76.48 0.0
06 21:15 S 17 16.09 Fair CLR 0 -2 87% -4 76.48 0.0
06 20:55 S 17 16.09 Fair CLR 0 -2 87% -4 76.48 0.0
06 20:35 S 17 16.09 Fair CLR 0 -2 87% -4 76.45 0.0
06 20:15 S 15 16.09 Fair CLR 0 -2 87% -4 76.45 0.0
06 19:55 S 15 16.09 Fair CLR 0 -2 87% -4 76.45 0.0
06 19:35 S 15 16.09 Fair CLR 1 -1 87% -3 76.45 0.0
06 19:15 S 11 16.09 Fair CLR 2 -2 75% -1 76.45 0.0
06 18:55 S 13 16.09 Fair CLR 2 -2 75% -1 76.43 0.0
06 18:35 SW 11 16.09 Fair CLR 2 -2 75% -1 76.43 0.0
06 18:15 SW 11 16.09 Fair CLR 2 -2 75% -1 76.43 0.0
06 17:55 Calm 16.09 Partly Cloudy SCT060 1 -2 81% 76.45 0.0
06 17:35 Calm 16.09 Mostly Cloudy SCT060 BKN070 0 -3 80% 76.45 0.0
06 17:15 Calm 16.09 Overcast BKN075 OVC080 0 -3 80% 76.45 0.0
06 16:55 Calm 16.09 Overcast OVC085 0 -3 80% 76.45 0.0
06 16:35 Calm 16.09 Mostly Cloudy SCT015 BKN085 0 -3 80% 76.45 0.0
06 16:15 Calm 16.09 Mostly Cloudy BKN013 0 -4 75% 76.48 0.0
06 15:55 NW 6 16.09 Overcast OVC011 0 -3 80% 76.48 0.0
06 15:35 Calm 16.09 Overcast OVC011 0 -3 80% 76.5 0.0
06 15:15 N 6 16.09 Overcast OVC011 -1 -4 80% 76.5 0.0
06 14:55 NE 9 16.09 Overcast OVC011 0 -3 80% -3 76.5 0.0
06 14:35 N 6 16.09 Overcast BKN009 OVC015 0 -3 80% 76.53 0.0
06 14:15 N 9 16.09 Overcast OVC007 0 -3 80% -3 76.53 0.0
06 13:55 N 13 16.09 Overcast OVC007 0 -3 80% -4 76.5 0.0
06 13:35 N 13 16.09 Overcast OVC007 -1 -3 86% -5 76.5 0.0
06 13:15 NE 15 11.27 Overcast BKN007 OVC012 -1 -3 86% -5 76.5 0.0
06 12:55 N 13 11.27 Overcast BKN005 OVC010 -1 -3 86% -5 76.5 0.0
06 12:35 N 15 8.05 Light Snow BKN005 OVC018 -1 -2 93% -5 76.53 0.0
06 12:15 N 11 4.83 Light Snow BKN005 BKN011 OVC016 -1 -3 86% -4 76.5 0.0
06 11:55 N 13 8.05 Fog/Mist BKN005 BKN008 OVC015 -1 -3 86% -5 76.5 0.0
06 11:35 N 11 4.02 Light Snow BKN005 BKN010 OVC013 -1 -3 86% -4 76.5 0.0
06 11:15 N 9 2.01 Light Snow BKN005 BKN009 OVC018 -1 -3 86% -4 76.48 0.0
06 10:55 NE 9 2.82 Light Snow OVC003 -1 -3 86% -4 76.48 0.0
06 10:35 N 11 2.01 Light Snow OVC005 -2 -3 93% -6 76.45 0.0
06 10:15 N 11 2.82 Light Snow BKN005 OVC013 -1 -3 86% -4 76.43 0.0
06 09:55 N 13 2.41 Light Snow OVC005 -2 -3 93% -6 76.45 0.0 0.03
06 09:35 N 9 1.61 Light Snow OVC003 -2 -3 93% -5 76.43 0.0 0.03
06 09:15 N 11 2.01 Light Snow OVC003 -2 -3 93% -6 76.4 0.0
06 08:55 N 7 2.41 Light Snow BKN003 OVC010 -2 -3 93% -4 76.4 0.0 0.03
06 08:35 N 11 4.02 Light Snow BKN003 OVC014 -2 -3 93% -6 76.4 0.0
06 08:15 N 9 3.22 Light Snow OVC003 -3 -3 100% -6 76.38 0.0
06 07:55 N 7 16.09 Overcast BKN005 OVC013 -3 -3 100% -6 76.38 0.0
06 07:35 NE 9 16.09 Overcast BKN005 OVC013 -3 -3 100% -6 76.38 0.0
06 07:15 NE 9 4.83 Light Snow OVC005 -3 -3 100% -6 76.33 0.0
06 06:55 NE 11 2.01 Light Snow OVC005 -3 -3 100% -7 76.33 0.0
06 06:35 NE 13 1.21 Light Snow OVC002 -3 -3 100% -7 76.3 0.0
06 06:15 NE 15 0.80 Freezing Fog OVC002 -3 -3 100% -8 76.28 0.0
06 05:55 NE 17 6.44 Fog/Mist OVC002 -3 -3 100% -8 76.28 0.0
06 05:35 NE 19 16.09 Overcast OVC004 -3 -3 100% -8 76.25 0.0
06 05:15 NE 15 16.09 Overcast OVC004 -3 -3 100% -8 76.28 0.0
06 04:55 N 13 8.05 Light Snow OVC004 -3 -3 100% -7 76.25 0.0 0.03
06 04:35 N 13 4.83 Light Snow OVC004 -3 -3 100% -7 76.25 0.0 0.03
06 04:15 N 11 8.05 Light Snow OVC004 -3 -3 100% -7 76.23 0.0 0.03
06 03:55 N 11 4.83 Light Snow OVC004 -3 -3 100% -7 76.23 0.0
06 03:35 N 13 4.83 Light Snow OVC004 -3 -3 100% -7 76.23 0.0
06 03:15 N 13 4.83 Light Snow OVC004 -2 -3 93% -6 76.23 0.0
06 02:55 N 11 8.05 Light Snow OVC004 -2 -3 93% -6 76.23 0.0
06 02:35 NW 17 16.09 Overcast BKN004 BKN009 OVC029 -2 -3 93% -7 76.25 0.0
06 02:15 N 15 6.44 Light Snow BKN002 BKN010 OVC029 -2 -3 93% -6 76.23 0.0
06 01:55 N 11 4.02 Light Snow OVC002 -2 -2 100% -6 76.23 0.0 0.03
06 01:35 NW 13 11.27 Light Snow BKN002 OVC007 -2 -2 100% -6 76.23 0.0 0.03
06 01:15 NW 15 8.05 Fog/Mist OVC002 -2 -2 100% -6 76.23 0.0
06 00:55 NW 13 8.05 Light Snow OVC004 -2 -2 100% -6 76.23 0.0 0.05
06 00:35 N 7 2.82 Light Snow OVC004 -2 -2 100% -4 76.23 0.0 0.03
06 00:15 N 11 2.41 Light Snow BKN004 OVC011 -2 -2 100% -6 76.23 0.0
05 23:55 NW 13 1.61 Snow BKN004 OVC009 -2 -2 100% -6 76.2 0.0 0.03
05 23:15 N 9 4.83 Light Snow BKN003 BKN010 OVC025 -2 -2 100% -5 76.17 0.0
05 22:55 NW 13 2.01 Light Snow OVC003 -2 -2 100% -6 76.2 0.0 0.03
05 22:35 NW 13 2.01 Light Snow OVC003 -2 -2 100% -6 76.17 0.0 0.03
05 22:15 NW 17 3.22 Light Snow OVC003 -2 -2 100% -7 76.17 0.0 0.03
05 21:55 NW 19 3.22 Light Snow OVC003 -2 -2 100% -7 76.17 0.0
05 21:35 NW 17 4.02 Light Snow OVC003 -2 -2 100% -7 76.17 0.0
05 21:15 NW 19 2.82 Light Snow OVC003 -2 -2 100% -7 76.15 0.0
05 20:55 NW 15 2.01 Light Snow OVC005 -1 -2 93% -5 76.1 0.0 0.03
05 20:35 NW 17 2.82 Light Snow OVC003 -1 -2 93% -6 76.07 0.0
05 20:15 NW 20 6.44 Light Snow OVC003 -1 -2 93% -6 76.05 0.0
05 19:55 W 20 1.21 Light Snow OVC003 -1 -2 93% -6 76.02 0.0 0.03
05 19:35 NW 20 0.80 Light Snow OVC003 -1 -1 100% -6 76.02 0.0 0.03
05 19:15 NW 17 1.61 Light Snow OVC003 -1 -1 100% -6 76 0.0 0.03
05 18:55 NW 20 0.40 Heavy Snow OVC003 0 0 100% -5 75.97 0.0 0.05
05 18:35 Calm 0.40 Light Snow OVC003 0 0 100% 75.97 0.0 0.05
05 18:15 S 6 2.01 Light Snow BKN003 BKN008 OVC015 0 0 100% 75.97 0.0 0.03
05 17:55 SW 13 1.61 Light Snow OVC005 0 0 100% -4 75.97 0.0 0.05
05 17:35 S 11 3.22 Drizzle BKN005 OVC013 1 0 93% -2 75.95 0.0
05 17:15 SE 13 6.44 Light Drizzle BKN007 OVC012 1 0 93% -2 75.95 0.0
05 16:55 SE 15 6.44 Light Rain OVC007 1 0 93% -3 75.92 0.0
05 16:35 SE 17 11.27 Overcast BKN007 OVC011 1 0 93% -3 75.9 0.0
05 16:15 SE 19 16.09 Overcast BKN008 OVC011 1 1 100% -3 75.9 0.0
05 15:55 SE 19 11.27 Overcast BKN006 OVC011 1 1 100% -3 75.9 0.0
05 15:35 SE 19 6.44 Fog/Mist OVC006 1 1 100% -3 75.92 0.0
05 15:15 SE 22 8.05 Fog/Mist OVC006 2 1 93% -3 75.95 0.0
05 14:55 SE 17 8.05 Fog/Mist BKN008 OVC013 2 1 93% -2 75.95 0.0
05 14:35 SE 17 8.05 Fog/Mist BKN008 OVC013 2 1 93% -2 75.97 0.0
05 14:15 SE 19 4.83 Light Drizzle BKN006 OVC013 2 1 93% -2 75.97 0.0
05 13:35 SE 19 8.05 Fog/Mist BKN008 OVC017 2 1 93% -2 76 0.0 0.03
05 13:15 SE 13 6.44 Light Snow OVC006 1 0 93% -2 76.02 0.0 0.03
05 12:55 E 13 4.83 Light Snow OVC004 1 1 100% -2 76.02 0.0 0.03
05 12:35 E 17 2.82 Light Snow OVC004 1 0 93% -3 76.02 0.0
05 12:15 E 11 2.82 Light Rain OVC004 0 0 100% -3 76.07 0.0
05 11:55 NE 15 4.83 Fog/Mist OVC004 1 0 93% -3 76.07 0.0 0.03
05 11:35 NE 13 4.02 Light Drizzle OVC004 0 0 100% -4 76.07 0.0 0.03
05 11:15 NE 11 6.44 Fog/Mist OVC004 0 0 100% -3 76.12 0.0
05 10:55 N 11 6.44 Light Drizzle OVC004 0 0 100% -3 76.12 0.0
05 10:35 N 11 6.44 Light Drizzle OVC002 0 0 100% -3 76.12 0.0
05 10:15 N 13 6.44 Light Drizzle OVC002 0 0 100% -4 76.12 0.0
05 09:35 N 13 0.40 Fog OVC002 0 0 100% -4 76.12 0.0
05 09:15 N 15 0.24 Fog OVC002 0 0 100% -4 76.12 0.0
05 08:55 N 13 0.24 Fog OVC002 0 0 100% -4 76.12 0.0
05 08:35 NW 17 0.40 Fog OVC002 0 0 100% -4 76.12 0.0
05 08:15 NW 19 0.24 Fog OVC002 1 1 100% -3 76.12 0.0
05 07:55 W 17 0.40 Fog OVC002 1 1 100% -3 76.1 0.0
05 07:35 W 22 1.61 Fog/Mist OVC002 1 1 100% -4 76.1 0.0
05 07:15 W 26 8.05 Fog/Mist OVC002 1 1 100% -4 76.1 0.0
05 06:55 W 22 2.41 Drizzle OVC002 1 1 100% -4 76.07 0.0 0.05
05 06:35 W 22 1.21 Drizzle OVC002 2 2 100% -3 76.05 0.0 0.05
05 06:15 W 22 0.80 Light Rain OVC002 2 2 100% -3 76.02 0.0 0.03
05 05:55 W 22 0.24 Fog OVC002 3 3 100% -1 76.02 0.0 0.03
05 05:35 W 24 2.41 Light Rain SCT002 OVC017 5 3 87% 1 76 0.0
05 05:15 S 6 16.09 Overcast OVC019 4 3 93% 75.97 0.0
05 04:55 E 6 16.09 Overcast SCT019 BKN024 OVC050 4 3 93% 75.97 0.0
05 04:35 W 7 16.09 Mostly Cloudy SCT007 SCT024 BKN050 4 3 93% 2 75.97 0.0
05 04:15 W 6 16.09 Mostly Cloudy BKN090 5 3 87% 75.97 0.0
05 03:55 S 11 16.09 Overcast BKN080 OVC090 5 3 87% 3 75.92 0.0
05 03:35 S 7 16.09 Overcast SCT060 OVC070 5 3 87% 4 75.92 0.0
05 03:15 S 7 16.09 Overcast SCT065 BKN070 OVC080 5 4 93% 4 75.95 0.0
05 02:55 S 13 16.09 Overcast SCT065 OVC080 5 4 93% 2 75.97 0.0
05 02:35 S 13 16.09 Overcast SCT065 OVC080 5 4 93% 2 75.97 0.0
05 02:15 SE 15 16.09 Unknown Precip SCT018 BKN060 OVC080 5 4 93% 2 75.97 0.0
05 01:55 Calm 16.09 Drizzle SCT008 BKN027 OVC044 5 4 93% 76.02 0.0 0.03
05 01:35 Calm 16.09 Drizzle SCT005 BKN029 OVC037 5 4 93% 76.05 0.0 0.03
05 01:15 Calm 16.09 Rain BKN014 OVC030 5 4 93% 76.07 0.0
05 00:55 Calm 16.09 Light Rain SCT010 OVC015 5 4 93% 76.1 0.0 0.05
05 00:35 Calm 16.09 Light Rain OVC017 5 4 93% 76.07 0.0
05 00:15 Calm 16.09 Overcast SCT005 SCT019 OVC025 5 5 100% 76.07 0.0
04 23:55 N 7 16.09 Overcast BKN005 BKN019 OVC025 5 5 100% 4 76.1 0.0 0.03
04 23:35 NW 13 16.09 Light Rain SCT005 BKN020 OVC025 6 5 93% 4 76.1 0.0 0.03
04 23:15 NW 13 16.09 Light Drizzle OVC025 6 5 93% 4 76.1 0.0
04 22:55 NW 13 16.09 Overcast OVC027 6 5 93% 4 76.1 0.0 0.03
04 22:35 NW 9 16.09 Light Rain BKN030 OVC038 6 5 93% 4 76.1 0.0 0.03
04 22:15 Calm 11.27 Light Rain BKN037 BKN043 OVC049 6 5 93% 76.05 0.0 0.03
04 21:55 S 6 16.09 Rain BKN037 OVC043 6 5 93% 76.07 0.0 0.03
04 21:35 SE 9 16.09 Rain BKN037 OVC043 6 5 93% 4 76.05 0.0 0.03
04 21:15 S 7 16.09 Drizzle SCT040 OVC050 7 5 87% 6 76.07 0.0
04 20:55 Calm 16.09 Overcast BKN050 BKN065 OVC080 7 4 81% 76.05 0.0
04 20:35 Calm 16.09 Overcast SCT037 BKN050 OVC090 7 4 81% 76.02 0.0
04 20:15 NE 6 16.09 Light Rain BKN037 OVC047 7 3 76% 76.02 0.0
04 19:55 N 6 16.09 Light Rain BKN031 OVC039 7 3 76% 76.02 0.0 0.08
04 19:35 NW 20 G 43 16.09 Rain SCT031 BKN037 OVC060 8 2 66% 5 76.02 0.0
04 19:15 W 15 16.09 Overcast SCT039 BKN060 OVC070 10 1 54% 8 75.97 0.0
04 18:55 NW 11 16.09 Overcast OVC080 10 0 50% 9 75.9 0.0
04 18:35 NW 17 16.09 Overcast SCT060 BKN090 OVC110 11 0 47% 75.92 0.0
04 18:15 NW 17 G 39 16.09 Mostly Cloudy SCT041 SCT050 BKN065 11 0 47% 75.95 0.0
04 17:55 N 31 G 54 16.09 Overcast SCT039 BKN055 OVC065 12 0 44% 75.92 0.0
04 17:35 NE 11 16.09 Light Rain SCT039 BKN065 OVC080 12 -1 41% 75.95 0.0
04 17:15 SE 22 G 37 16.09 Overcast BKN065 BKN075 OVC090 13 -2 36% 75.9 0.0
04 16:55 NE 19 16.09 Overcast SCT065 OVC090 15 -3 29% 75.84 0.0
04 16:35 N 22 G 35 16.09 Overcast OVC090 15 -4 27% 75.82 0.0
04 16:15 NE 19 16.09 Overcast OVC090 16 -4 25% 75.82 0.0
04 15:55 N 9 G 15 16.09 Overcast OVC090 17 -4 24% 75.82 0.0
04 15:35 NE 9 16.09 Mostly Cloudy BKN090 BKN120 18 -3 24% 75.82 0.0
04 15:15 N 9 G 31 16.09 Partly Cloudy SCT110 17 -4 24% 75.84 0.0
04 14:55 N 19 G 28 16.09 Mostly Cloudy SCT050 SCT070 BKN090 17 -3 25% 75.84 0.0
04 14:35 N 17 G 28 16.09 Overcast SCT070 OVC090 16 -5 23% 75.87 0.0
04 14:15 NW 13 16.09 Overcast SCT080 OVC100 17 -4 24% 75.87 0.0
04 13:55 N 19 G 26 16.09 Overcast BKN100 OVC120 17 -4 24% 75.87 0.0
04 13:35 E 7 16.09 Mostly Cloudy SCT100 BKN120 18 -4 22% 75.87 0.0
04 13:15 S 13 G 37 16.09 Partly Cloudy SCT090 SCT120 18 -4 22% 75.87 0.0
Date Time (mdt) Wind (kph) Vis. (km) Weather Sky Cond. Air Dwpt Max. Min. Relative Humidity Wind Chill (°C) Heat Index (°C) altimeter (cm) sea level (mb) 1 hr 3 hr 6 hr
6 hour
Temperature (ºC) Pressure Precipitation (cm)